sensor_id;sensor_type;location;lat;lon;timestamp;temperature;humidity
16289;DHT22;26089;43.538;5.250;2022-10-31T00:00:08;15.10;99.90
16289;DHT22;26089;43.538;5.250;2022-10-31T00:02:37;15.10;99.90
16289;DHT22;26089;43.538;5.250;2022-10-31T00:05:06;15.10;99.90
16289;DHT22;26089;43.538;5.250;2022-10-31T00:07:33;15.10;99.90
16289;DHT22;26089;43.538;5.250;2022-10-31T00:10:00;15.10;99.90
16289;DHT22;26089;43.538;5.250;2022-10-31T00:12:27;15.00;99.90
16289;DHT22;26089;43.538;5.250;2022-10-31T00:14:54;15.00;99.90
16289;DHT22;26089;43.538;5.250;2022-10-31T00:17:21;15.00;99.90
16289;DHT22;26089;43.538;5.250;2022-10-31T00:19:48;15.00;99.90
16289;DHT22;26089;43.538;5.250;2022-10-31T00:22:16;15.00;99.90
16289;DHT22;26089;43.538;5.250;2022-10-31T00:24:43;15.00;99.90
16289;DHT22;26089;43.538;5.250;2022-10-31T00:27:10;15.10;99.90
16289;DHT22;26089;43.538;5.250;2022-10-31T00:29:37;15.10;99.90
16289;DHT22;26089;43.538;5.250;2022-10-31T00:32:04;15.10;99.90
16289;DHT22;26089;43.538;5.250;2022-10-31T00:34:31;15.10;99.90
16289;DHT22;26089;43.538;5.250;2022-10-31T00:36:58;15.10;99.90
16289;DHT22;26089;43.538;5.250;2022-10-31T00:39:26;15.10;99.90
16289;DHT22;26089;43.538;5.250;2022-10-31T00:41:53;15.10;99.90
16289;DHT22;26089;43.538;5.250;2022-10-31T00:44:20;15.20;99.90
16289;DHT22;26089;43.538;5.250;2022-10-31T00:46:47;15.20;99.90
16289;DHT22;26089;43.538;5.250;2022-10-31T00:49:14;15.20;99.90
16289;DHT22;26089;43.538;5.250;2022-10-31T00:51:42;15.20;99.90
16289;DHT22;26089;43.538;5.250;2022-10-31T00:54:09;15.20;99.90
16289;DHT22;26089;43.538;5.250;2022-10-31T00:56:37;15.20;99.90
16289;DHT22;26089;43.538;5.250;2022-10-31T00:59:04;15.20;99.90
16289;DHT22;26089;43.538;5.250;2022-10-31T01:01:31;15.20;99.90
16289;DHT22;26089;43.538;5.250;2022-10-31T01:03:58;15.20;99.90
16289;DHT22;26089;43.538;5.250;2022-10-31T01:06:25;15.30;99.90
16289;DHT22;26089;43.538;5.250;2022-10-31T01:08:52;15.30;99.90
16289;DHT22;26089;43.538;5.250;2022-10-31T01:11:20;15.30;99.90
16289;DHT22;26089;43.538;5.250;2022-10-31T01:13:50;15.30;99.90
16289;DHT22;26089;43.538;5.250;2022-10-31T01:16:19;15.20;99.90
16289;DHT22;26089;43.538;5.250;2022-10-31T01:18:46;15.20;99.90
16289;DHT22;26089;43.538;5.250;2022-10-31T01:21:15;15.20;99.90
16289;DHT22;26089;43.538;5.250;2022-10-31T01:23:43;15.20;99.90
16289;DHT22;26089;43.538;5.250;2022-10-31T01:26:12;15.20;99.90
16289;DHT22;26089;43.538;5.250;2022-10-31T01:28:44;15.30;99.90
16289;DHT22;26089;43.538;5.250;2022-10-31T01:31:13;14.80;99.90
16289;DHT22;26089;43.538;5.250;2022-10-31T01:33:40;15.20;99.90
16289;DHT22;26089;43.538;5.250;2022-10-31T01:36:13;15.20;99.90
16289;DHT22;26089;43.538;5.250;2022-10-31T01:38:40;15.30;99.90
16289;DHT22;26089;43.538;5.250;2022-10-31T01:41:08;15.30;99.90
16289;DHT22;26089;43.538;5.250;2022-10-31T01:43:43;15.30;99.90
16289;DHT22;26089;43.538;5.250;2022-10-31T01:46:12;15.30;99.90
16289;DHT22;26089;43.538;5.250;2022-10-31T01:48:40;15.40;99.90
16289;DHT22;26089;43.538;5.250;2022-10-31T01:51:09;15.40;99.90
16289;DHT22;26089;43.538;5.250;2022-10-31T01:53:39;15.50;99.90
16289;DHT22;26089;43.538;5.250;2022-10-31T01:56:07;15.50;99.90
16289;DHT22;26089;43.538;5.250;2022-10-31T01:58:35;15.60;99.90
16289;DHT22;26089;43.538;5.250;2022-10-31T02:01:03;15.60;99.90
16289;DHT22;26089;43.538;5.250;2022-10-31T02:03:32;15.60;99.90
16289;DHT22;26089;43.538;5.250;2022-10-31T02:05:59;15.60;99.90
16289;DHT22;26089;43.538;5.250;2022-10-31T02:08:28;15.60;99.90
16289;DHT22;26089;43.538;5.250;2022-10-31T02:10:57;15.50;99.90
16289;DHT22;26089;43.538;5.250;2022-10-31T02:13:25;15.50;99.90
16289;DHT22;26089;43.538;5.250;2022-10-31T02:15:54;15.50;99.90
16289;DHT22;26089;43.538;5.250;2022-10-31T02:18:22;15.40;99.90
16289;DHT22;26089;43.538;5.250;2022-10-31T02:20:58;15.50;99.90
16289;DHT22;26089;43.538;5.250;2022-10-31T02:30:01;15.30;99.90
16289;DHT22;26089;43.538;5.250;2022-10-31T02:32:54;15.40;99.90
16289;DHT22;26089;43.538;5.250;2022-10-31T02:35:39;15.30;99.90
16289;DHT22;26089;43.538;5.250;2022-10-31T02:38:16;15.30;99.90
16289;DHT22;26089;43.538;5.250;2022-10-31T02:40:53;15.30;99.90
16289;DHT22;26089;43.538;5.250;2022-10-31T02:43:28;15.30;99.90
16289;DHT22;26089;43.538;5.250;2022-10-31T02:46:01;15.30;99.90
16289;DHT22;26089;43.538;5.250;2022-10-31T02:48:33;15.30;99.90
16289;DHT22;26089;43.538;5.250;2022-10-31T02:51:03;15.30;99.90
16289;DHT22;26089;43.538;5.250;2022-10-31T02:53:32;15.20;99.90
16289;DHT22;26089;43.538;5.250;2022-10-31T02:56:02;15.10;99.90
16289;DHT22;26089;43.538;5.250;2022-10-31T02:58:33;15.10;99.90
16289;DHT22;26089;43.538;5.250;2022-10-31T03:01:53;15.10;99.90
16289;DHT22;26089;43.538;5.250;2022-10-31T03:04:45;15.10;99.90
16289;DHT22;26089;43.538;5.250;2022-10-31T03:07:23;15.10;99.90
16289;DHT22;26089;43.538;5.250;2022-10-31T03:09:58;15.00;99.90
16289;DHT22;26089;43.538;5.250;2022-10-31T03:12:30;15.00;99.90
16289;DHT22;26089;43.538;5.250;2022-10-31T03:15:06;15.00;99.90
16289;DHT22;26089;43.538;5.250;2022-10-31T03:17:37;15.00;99.90
16289;DHT22;26089;43.538;5.250;2022-10-31T03:20:09;15.00;99.90
16289;DHT22;26089;43.538;5.250;2022-10-31T03:22:37;15.00;99.90
16289;DHT22;26089;43.538;5.250;2022-10-31T03:25:07;14.90;99.90
16289;DHT22;26089;43.538;5.250;2022-10-31T03:27:36;14.90;99.90
16289;DHT22;26089;43.538;5.250;2022-10-31T03:30:06;14.80;99.90
16289;DHT22;26089;43.538;5.250;2022-10-31T03:32:38;14.80;99.90
16289;DHT22;26089;43.538;5.250;2022-10-31T03:35:09;14.80;99.90
16289;DHT22;26089;43.538;5.250;2022-10-31T03:37:37;14.80;99.90
16289;DHT22;26089;43.538;5.250;2022-10-31T03:40:07;14.70;99.90
16289;DHT22;26089;43.538;5.250;2022-10-31T03:42:39;14.70;99.90
16289;DHT22;26089;43.538;5.250;2022-10-31T03:45:11;14.70;99.90
16289;DHT22;26089;43.538;5.250;2022-10-31T03:47:40;14.60;99.90
16289;DHT22;26089;43.538;5.250;2022-10-31T03:50:11;14.60;99.90
16289;DHT22;26089;43.538;5.250;2022-10-31T03:52:44;14.50;99.90
16289;DHT22;26089;43.538;5.250;2022-10-31T03:55:18;14.40;99.90
16289;DHT22;26089;43.538;5.250;2022-10-31T03:57:51;14.40;99.90
16289;DHT22;26089;43.538;5.250;2022-10-31T04:00:19;14.40;99.90
16289;DHT22;26089;43.538;5.250;2022-10-31T04:02:50;14.30;99.90
16289;DHT22;26089;43.538;5.250;2022-10-31T04:05:21;14.30;99.90
16289;DHT22;26089;43.538;5.250;2022-10-31T04:07:53;14.30;99.90
16289;DHT22;26089;43.538;5.250;2022-10-31T04:10:22;14.30;99.90
16289;DHT22;26089;43.538;5.250;2022-10-31T04:12:54;14.20;99.90
16289;DHT22;26089;43.538;5.250;2022-10-31T04:15:24;14.20;99.90
16289;DHT22;26089;43.538;5.250;2022-10-31T04:17:53;14.20;99.90
16289;DHT22;26089;43.538;5.250;2022-10-31T04:20:31;14.20;99.90
16289;DHT22;26089;43.538;5.250;2022-10-31T04:22:58;14.20;99.90
16289;DHT22;26089;43.538;5.250;2022-10-31T04:25:25;14.20;99.90
16289;DHT22;26089;43.538;5.250;2022-10-31T04:27:52;14.10;99.90
16289;DHT22;26089;43.538;5.250;2022-10-31T04:30:19;14.10;99.90
16289;DHT22;26089;43.538;5.250;2022-10-31T04:32:46;14.10;99.90
16289;DHT22;26089;43.538;5.250;2022-10-31T04:35:14;14.10;99.90
16289;DHT22;26089;43.538;5.250;2022-10-31T04:37:43;14.10;99.90
16289;DHT22;26089;43.538;5.250;2022-10-31T04:40:10;14.10;99.90
16289;DHT22;26089;43.538;5.250;2022-10-31T04:42:37;14.10;99.90
16289;DHT22;26089;43.538;5.250;2022-10-31T04:45:05;14.10;99.90
16289;DHT22;26089;43.538;5.250;2022-10-31T04:47:33;14.10;99.90
16289;DHT22;26089;43.538;5.250;2022-10-31T04:50:00;14.00;99.90
16289;DHT22;26089;43.538;5.250;2022-10-31T04:52:27;14.10;99.90
16289;DHT22;26089;43.538;5.250;2022-10-31T04:54:56;14.10;99.90
16289;DHT22;26089;43.538;5.250;2022-10-31T04:57:23;14.00;99.90
16289;DHT22;26089;43.538;5.250;2022-10-31T04:59:50;14.00;99.90
16289;DHT22;26089;43.538;5.250;2022-10-31T05:02:17;14.00;99.90
16289;DHT22;26089;43.538;5.250;2022-10-31T05:04:44;14.00;99.90
16289;DHT22;26089;43.538;5.250;2022-10-31T05:07:11;14.00;99.90
16289;DHT22;26089;43.538;5.250;2022-10-31T05:09:38;14.00;99.90
16289;DHT22;26089;43.538;5.250;2022-10-31T05:12:06;14.10;99.90
16289;DHT22;26089;43.538;5.250;2022-10-31T05:14:33;14.10;99.90
16289;DHT22;26089;43.538;5.250;2022-10-31T05:17:00;14.10;99.90
16289;DHT22;26089;43.538;5.250;2022-10-31T05:19:27;14.10;99.90
16289;DHT22;26089;43.538;5.250;2022-10-31T05:21:54;14.20;99.90
16289;DHT22;26089;43.538;5.250;2022-10-31T05:24:21;14.20;99.90
16289;DHT22;26089;43.538;5.250;2022-10-31T05:26:49;14.10;99.90
16289;DHT22;26089;43.538;5.250;2022-10-31T05:29:17;14.10;99.90
16289;DHT22;26089;43.538;5.250;2022-10-31T05:31:44;14.00;99.90
16289;DHT22;26089;43.538;5.250;2022-10-31T05:34:11;14.10;99.90
16289;DHT22;26089;43.538;5.250;2022-10-31T05:36:38;14.10;99.90
16289;DHT22;26089;43.538;5.250;2022-10-31T05:39:05;14.10;99.90
16289;DHT22;26089;43.538;5.250;2022-10-31T05:41:32;14.10;99.90
16289;DHT22;26089;43.538;5.250;2022-10-31T05:43:59;14.10;99.90
16289;DHT22;26089;43.538;5.250;2022-10-31T05:46:27;14.10;99.90
16289;DHT22;26089;43.538;5.250;2022-10-31T05:48:54;14.20;99.90
16289;DHT22;26089;43.538;5.250;2022-10-31T05:51:21;14.20;99.90
16289;DHT22;26089;43.538;5.250;2022-10-31T05:53:48;14.20;99.90
16289;DHT22;26089;43.538;5.250;2022-10-31T05:56:16;14.20;99.90
16289;DHT22;26089;43.538;5.250;2022-10-31T05:58:43;14.20;99.90
16289;DHT22;26089;43.538;5.250;2022-10-31T06:01:10;14.20;99.90
16289;DHT22;26089;43.538;5.250;2022-10-31T06:03:38;14.20;99.90
16289;DHT22;26089;43.538;5.250;2022-10-31T06:06:05;14.20;99.90
16289;DHT22;26089;43.538;5.250;2022-10-31T06:08:32;14.20;99.90
16289;DHT22;26089;43.538;5.250;2022-10-31T06:10:59;14.20;99.90
16289;DHT22;26089;43.538;5.250;2022-10-31T06:13:26;14.30;99.90
16289;DHT22;26089;43.538;5.250;2022-10-31T06:15:53;14.30;99.90
16289;DHT22;26089;43.538;5.250;2022-10-31T06:18:20;14.20;99.90
16289;DHT22;26089;43.538;5.250;2022-10-31T06:20:49;14.20;99.90
16289;DHT22;26089;43.538;5.250;2022-10-31T06:23:16;14.20;99.90
16289;DHT22;26089;43.538;5.250;2022-10-31T06:25:46;14.20;99.90
16289;DHT22;26089;43.538;5.250;2022-10-31T06:28:14;14.20;99.90
16289;DHT22;26089;43.538;5.250;2022-10-31T06:30:41;14.20;99.90
16289;DHT22;26089;43.538;5.250;2022-10-31T06:33:08;14.20;99.90
16289;DHT22;26089;43.538;5.250;2022-10-31T06:35:35;14.20;99.90
16289;DHT22;26089;43.538;5.250;2022-10-31T06:38:04;14.20;99.90
16289;DHT22;26089;43.538;5.250;2022-10-31T06:40:31;14.20;99.90
16289;DHT22;26089;43.538;5.250;2022-10-31T06:42:58;14.20;99.90
16289;DHT22;26089;43.538;5.250;2022-10-31T06:45:25;14.30;99.90
16289;DHT22;26089;43.538;5.250;2022-10-31T06:47:53;14.30;99.90
16289;DHT22;26089;43.538;5.250;2022-10-31T06:50:20;14.30;99.90
16289;DHT22;26089;43.538;5.250;2022-10-31T06:52:51;14.30;99.90
16289;DHT22;26089;43.538;5.250;2022-10-31T06:55:20;14.40;99.90
16289;DHT22;26089;43.538;5.250;2022-10-31T06:57:51;14.40;99.90
16289;DHT22;26089;43.538;5.250;2022-10-31T07:00:18;14.50;99.90
16289;DHT22;26089;43.538;5.250;2022-10-31T07:02:53;14.50;99.90
16289;DHT22;26089;43.538;5.250;2022-10-31T07:05:20;14.50;99.90
16289;DHT22;26089;43.538;5.250;2022-10-31T07:07:47;14.60;99.90
16289;DHT22;26089;43.538;5.250;2022-10-31T07:10:14;14.60;99.90
16289;DHT22;26089;43.538;5.250;2022-10-31T07:12:42;14.70;99.90
16289;DHT22;26089;43.538;5.250;2022-10-31T07:15:09;14.80;99.90
16289;DHT22;26089;43.538;5.250;2022-10-31T07:17:36;14.90;99.90
16289;DHT22;26089;43.538;5.250;2022-10-31T07:20:05;15.00;99.90
16289;DHT22;26089;43.538;5.250;2022-10-31T07:22:33;15.10;99.90
16289;DHT22;26089;43.538;5.250;2022-10-31T07:25:00;15.20;99.90
16289;DHT22;26089;43.538;5.250;2022-10-31T07:27:27;15.20;99.90
16289;DHT22;26089;43.538;5.250;2022-10-31T07:29:55;15.30;99.90
16289;DHT22;26089;43.538;5.250;2022-10-31T07:32:22;15.30;99.90
16289;DHT22;26089;43.538;5.250;2022-10-31T07:34:49;15.30;99.90
16289;DHT22;26089;43.538;5.250;2022-10-31T07:37:17;15.40;99.90
16289;DHT22;26089;43.538;5.250;2022-10-31T07:39:44;15.40;99.90
16289;DHT22;26089;43.538;5.250;2022-10-31T07:42:11;15.50;99.90
16289;DHT22;26089;43.538;5.250;2022-10-31T07:44:38;15.60;99.90
16289;DHT22;26089;43.538;5.250;2022-10-31T07:47:06;15.70;99.90
16289;DHT22;26089;43.538;5.250;2022-10-31T07:49:33;15.90;99.90
16289;DHT22;26089;43.538;5.250;2022-10-31T07:52:00;16.20;99.90
16289;DHT22;26089;43.538;5.250;2022-10-31T07:54:27;16.40;99.90
16289;DHT22;26089;43.538;5.250;2022-10-31T07:56:54;16.50;99.90
16289;DHT22;26089;43.538;5.250;2022-10-31T07:59:21;16.80;99.90
16289;DHT22;26089;43.538;5.250;2022-10-31T08:01:48;17.30;99.90
16289;DHT22;26089;43.538;5.250;2022-10-31T08:04:16;18.10;99.90
16289;DHT22;26089;43.538;5.250;2022-10-31T08:06:43;18.70;99.90
16289;DHT22;26089;43.538;5.250;2022-10-31T08:09:10;19.30;99.90
16289;DHT22;26089;43.538;5.250;2022-10-31T08:11:37;19.70;99.90
16289;DHT22;26089;43.538;5.250;2022-10-31T08:14:05;19.70;99.90
16289;DHT22;26089;43.538;5.250;2022-10-31T08:16:32;20.20;99.90
16289;DHT22;26089;43.538;5.250;2022-10-31T08:18:59;20.40;99.90
16289;DHT22;26089;43.538;5.250;2022-10-31T08:21:27;20.80;99.90
16289;DHT22;26089;43.538;5.250;2022-10-31T08:23:54;21.30;99.90
16289;DHT22;26089;43.538;5.250;2022-10-31T08:26:21;21.60;99.90
16289;DHT22;26089;43.538;5.250;2022-10-31T08:28:48;21.60;99.90
16289;DHT22;26089;43.538;5.250;2022-10-31T08:31:15;21.40;99.90
16289;DHT22;26089;43.538;5.250;2022-10-31T08:33:42;21.00;99.90
16289;DHT22;26089;43.538;5.250;2022-10-31T08:36:09;20.60;99.90
16289;DHT22;26089;43.538;5.250;2022-10-31T08:38:38;20.20;99.90
16289;DHT22;26089;43.538;5.250;2022-10-31T08:41:05;19.90;99.90
16289;DHT22;26089;43.538;5.250;2022-10-31T08:43:32;19.80;99.90
16289;DHT22;26089;43.538;5.250;2022-10-31T08:45:59;19.70;99.90
16289;DHT22;26089;43.538;5.250;2022-10-31T08:48:26;19.80;99.90
16289;DHT22;26089;43.538;5.250;2022-10-31T08:50:56;19.80;99.90
16289;DHT22;26089;43.538;5.250;2022-10-31T08:53:24;19.70;99.90
16289;DHT22;26089;43.538;5.250;2022-10-31T08:55:54;19.80;99.90
16289;DHT22;26089;43.538;5.250;2022-10-31T08:58:23;19.80;99.90
16289;DHT22;26089;43.538;5.250;2022-10-31T09:00:51;19.80;99.90
16289;DHT22;26089;43.538;5.250;2022-10-31T09:03:21;19.90;99.90
16289;DHT22;26089;43.538;5.250;2022-10-31T09:05:49;19.90;99.90
16289;DHT22;26089;43.538;5.250;2022-10-31T09:08:16;20.00;99.90
16289;DHT22;26089;43.538;5.250;2022-10-31T09:10:44;20.10;99.90
16289;DHT22;26089;43.538;5.250;2022-10-31T09:13:14;20.20;99.90
16289;DHT22;26089;43.538;5.250;2022-10-31T09:15:43;20.20;99.90
16289;DHT22;26089;43.538;5.250;2022-10-31T09:18:11;20.30;99.90
16289;DHT22;26089;43.538;5.250;2022-10-31T09:20:40;20.30;99.90
16289;DHT22;26089;43.538;5.250;2022-10-31T09:23:09;20.40;99.90
16289;DHT22;26089;43.538;5.250;2022-10-31T09:25:37;20.50;99.90
16289;DHT22;26089;43.538;5.250;2022-10-31T09:28:06;20.60;99.90
16289;DHT22;26089;43.538;5.250;2022-10-31T09:30:35;20.80;99.90
16289;DHT22;26089;43.538;5.250;2022-10-31T09:33:03;20.90;99.90
16289;DHT22;26089;43.538;5.250;2022-10-31T09:35:31;21.00;99.90
16289;DHT22;26089;43.538;5.250;2022-10-31T09:37:59;21.00;99.90
16289;DHT22;26089;43.538;5.250;2022-10-31T09:40:35;20.90;99.90
16289;DHT22;26089;43.538;5.250;2022-10-31T09:43:08;21.00;99.90
16289;DHT22;26089;43.538;5.250;2022-10-31T09:45:46;21.10;99.90
16289;DHT22;26089;43.538;5.250;2022-10-31T09:48:25;21.20;99.90
16289;DHT22;26089;43.538;5.250;2022-10-31T09:50:57;21.30;99.90
16289;DHT22;26089;43.538;5.250;2022-10-31T09:53:31;21.40;99.90
16289;DHT22;26089;43.538;5.250;2022-10-31T09:56:01;21.60;99.90
16289;DHT22;26089;43.538;5.250;2022-10-31T09:58:30;21.70;99.90
16289;DHT22;26089;43.538;5.250;2022-10-31T10:01:01;21.80;99.90
16289;DHT22;26089;43.538;5.250;2022-10-31T10:03:34;21.80;99.90
16289;DHT22;26089;43.538;5.250;2022-10-31T10:06:10;21.90;99.90
16289;DHT22;26089;43.538;5.250;2022-10-31T10:08:38;22.10;99.90
16289;DHT22;26089;43.538;5.250;2022-10-31T10:11:29;22.20;99.90
16289;DHT22;26089;43.538;5.250;2022-10-31T10:14:25;22.30;99.90
16289;DHT22;26089;43.538;5.250;2022-10-31T10:17:06;22.40;99.90
16289;DHT22;26089;43.538;5.250;2022-10-31T10:19:48;22.50;99.90
16289;DHT22;26089;43.538;5.250;2022-10-31T10:22:24;22.70;99.90
16289;DHT22;26089;43.538;5.250;2022-10-31T10:25:02;22.80;99.90
16289;DHT22;26089;43.538;5.250;2022-10-31T10:27:42;23.00;99.90
16289;DHT22;26089;43.538;5.250;2022-10-31T10:30:15;23.10;99.90
16289;DHT22;26089;43.538;5.250;2022-10-31T10:32:47;23.30;99.90
16289;DHT22;26089;43.538;5.250;2022-10-31T10:35:22;23.50;99.90
16289;DHT22;26089;43.538;5.250;2022-10-31T10:37:52;23.70;99.90
16289;DHT22;26089;43.538;5.250;2022-10-31T10:40:21;24.00;99.90
16289;DHT22;26089;43.538;5.250;2022-10-31T10:43:00;24.10;99.90
16289;DHT22;26089;43.538;5.250;2022-10-31T10:45:52;24.30;99.90
16289;DHT22;26089;43.538;5.250;2022-10-31T10:48:43;24.40;99.90
16289;DHT22;26089;43.538;5.250;2022-10-31T10:51:20;24.50;99.90
16289;DHT22;26089;43.538;5.250;2022-10-31T10:53:57;24.50;99.90
16289;DHT22;26089;43.538;5.250;2022-10-31T10:56:39;24.70;99.90
16289;DHT22;26089;43.538;5.250;2022-10-31T10:59:10;24.70;99.90
16289;DHT22;26089;43.538;5.250;2022-10-31T11:01:40;25.00;99.90
16289;DHT22;26089;43.538;5.250;2022-10-31T11:04:29;25.30;99.90
16289;DHT22;26089;43.538;5.250;2022-10-31T11:07:01;25.80;99.90
16289;DHT22;26089;43.538;5.250;2022-10-31T11:09:29;26.20;99.90
16289;DHT22;26089;43.538;5.250;2022-10-31T11:11:56;26.60;99.90
16289;DHT22;26089;43.538;5.250;2022-10-31T11:14:25;26.00;99.90
16289;DHT22;26089;43.538;5.250;2022-10-31T11:16:55;25.70;99.90
16289;DHT22;26089;43.538;5.250;2022-10-31T11:19:34;25.00;99.90
16289;DHT22;26089;43.538;5.250;2022-10-31T11:22:06;24.60;99.90
16289;DHT22;26089;43.538;5.250;2022-10-31T11:24:38;24.50;99.90
16289;DHT22;26089;43.538;5.250;2022-10-31T11:27:14;24.30;99.90
16289;DHT22;26089;43.538;5.250;2022-10-31T11:29:42;24.10;99.90
16289;DHT22;26089;43.538;5.250;2022-10-31T11:32:19;23.90;99.90
16289;DHT22;26089;43.538;5.250;2022-10-31T11:34:51;23.80;99.90
16289;DHT22;26089;43.538;5.250;2022-10-31T11:37:21;23.70;99.90
16289;DHT22;26089;43.538;5.250;2022-10-31T11:39:52;23.60;99.90
16289;DHT22;26089;43.538;5.250;2022-10-31T11:42:22;23.60;99.90
16289;DHT22;26089;43.538;5.250;2022-10-31T11:44:51;24.20;99.90
16289;DHT22;26089;43.538;5.250;2022-10-31T11:47:25;24.10;99.90
16289;DHT22;26089;43.538;5.250;2022-10-31T11:49:55;24.40;99.90
16289;DHT22;26089;43.538;5.250;2022-10-31T11:52:25;24.70;99.90
16289;DHT22;26089;43.538;5.250;2022-10-31T11:54:54;24.90;99.90
16289;DHT22;26089;43.538;5.250;2022-10-31T11:57:26;25.00;99.90
16289;DHT22;26089;43.538;5.250;2022-10-31T11:59:55;25.10;99.90
16289;DHT22;26089;43.538;5.250;2022-10-31T12:02:24;25.00;99.90
16289;DHT22;26089;43.538;5.250;2022-10-31T12:04:59;25.40;99.90
16289;DHT22;26089;43.538;5.250;2022-10-31T12:07:29;25.60;99.90
16289;DHT22;26089;43.538;5.250;2022-10-31T12:09:57;26.00;99.90
16289;DHT22;26089;43.538;5.250;2022-10-31T12:12:52;25.70;99.90
16289;DHT22;26089;43.538;5.250;2022-10-31T12:15:32;25.70;99.90
16289;DHT22;26089;43.538;5.250;2022-10-31T12:18:22;26.00;99.90
16289;DHT22;26089;43.538;5.250;2022-10-31T12:21:00;26.20;99.90
16289;DHT22;26089;43.538;5.250;2022-10-31T12:23:41;26.40;99.90
16289;DHT22;26089;43.538;5.250;2022-10-31T12:26:16;26.50;99.90
16289;DHT22;26089;43.538;5.250;2022-10-31T12:28:58;26.60;99.90
16289;DHT22;26089;43.538;5.250;2022-10-31T12:31:48;26.20;99.90
16289;DHT22;26089;43.538;5.250;2022-10-31T12:34:49;26.40;99.90
16289;DHT22;26089;43.538;5.250;2022-10-31T12:37:28;26.80;99.90
16289;DHT22;26089;43.538;5.250;2022-10-31T12:40:07;27.00;99.90
16289;DHT22;26089;43.538;5.250;2022-10-31T12:42:49;26.70;99.90
16289;DHT22;26089;43.538;5.250;2022-10-31T12:45:35;26.50;99.90
16289;DHT22;26089;43.538;5.250;2022-10-31T12:48:19;26.30;99.90
16289;DHT22;26089;43.538;5.250;2022-10-31T12:50:55;26.10;99.90
16289;DHT22;26089;43.538;5.250;2022-10-31T12:53:40;26.30;99.90
16289;DHT22;26089;43.538;5.250;2022-10-31T12:56:17;26.90;99.90
16289;DHT22;26089;43.538;5.250;2022-10-31T12:58:51;27.10;99.90
16289;DHT22;26089;43.538;5.250;2022-10-31T13:01:24;27.40;99.90
16289;DHT22;26089;43.538;5.250;2022-10-31T13:03:58;26.90;99.90
16289;DHT22;26089;43.538;5.250;2022-10-31T13:06:29;27.00;99.90
16289;DHT22;26089;43.538;5.250;2022-10-31T13:09:03;26.90;99.90
16289;DHT22;26089;43.538;5.250;2022-10-31T13:11:35;27.00;99.90
16289;DHT22;26089;43.538;5.250;2022-10-31T13:14:07;27.00;99.90
16289;DHT22;26089;43.538;5.250;2022-10-31T13:16:40;27.10;99.90
16289;DHT22;26089;43.538;5.250;2022-10-31T13:19:13;27.30;99.90
16289;DHT22;26089;43.538;5.250;2022-10-31T13:21:51;27.20;99.90
16289;DHT22;26089;43.538;5.250;2022-10-31T13:24:34;27.20;99.90
16289;DHT22;26089;43.538;5.250;2022-10-31T13:27:09;26.90;99.90
16289;DHT22;26089;43.538;5.250;2022-10-31T13:29:41;26.70;99.90
16289;DHT22;26089;43.538;5.250;2022-10-31T13:32:10;26.80;99.90
16289;DHT22;26089;43.538;5.250;2022-10-31T13:34:39;26.60;99.90
16289;DHT22;26089;43.538;5.250;2022-10-31T13:37:16;26.50;99.90
16289;DHT22;26089;43.538;5.250;2022-10-31T13:40:02;26.20;99.90
16289;DHT22;26089;43.538;5.250;2022-10-31T13:42:42;26.30;99.90
16289;DHT22;26089;43.538;5.250;2022-10-31T13:45:13;26.20;99.90
16289;DHT22;26089;43.538;5.250;2022-10-31T13:47:41;26.00;99.90
16289;DHT22;26089;43.538;5.250;2022-10-31T13:50:20;25.90;99.90
16289;DHT22;26089;43.538;5.250;2022-10-31T13:52:48;25.70;99.90
16289;DHT22;26089;43.538;5.250;2022-10-31T13:55:39;25.70;99.90
16289;DHT22;26089;43.538;5.250;2022-10-31T13:58:23;25.60;99.90
16289;DHT22;26089;43.538;5.250;2022-10-31T14:01:11;25.50;99.90
16289;DHT22;26089;43.538;5.250;2022-10-31T14:03:41;25.40;99.90
16289;DHT22;26089;43.538;5.250;2022-10-31T14:06:10;25.00;99.90
16289;DHT22;26089;43.538;5.250;2022-10-31T14:08:40;24.70;99.90
16289;DHT22;26089;43.538;5.250;2022-10-31T14:11:19;24.40;99.90
16289;DHT22;26089;43.538;5.250;2022-10-31T14:13:48;24.10;99.90
16289;DHT22;26089;43.538;5.250;2022-10-31T14:16:20;24.00;99.90
16289;DHT22;26089;43.538;5.250;2022-10-31T14:18:50;24.00;99.90
16289;DHT22;26089;43.538;5.250;2022-10-31T14:21:30;24.30;99.90
16289;DHT22;26089;43.538;5.250;2022-10-31T14:23:58;24.20;99.90
16289;DHT22;26089;43.538;5.250;2022-10-31T14:26:34;24.10;99.90
16289;DHT22;26089;43.538;5.250;2022-10-31T14:29:25;23.90;99.90
16289;DHT22;26089;43.538;5.250;2022-10-31T14:32:01;23.70;99.90
16289;DHT22;26089;43.538;5.250;2022-10-31T14:34:34;23.70;99.90
16289;DHT22;26089;43.538;5.250;2022-10-31T14:40:06;23.40;99.90
16289;DHT22;26089;43.538;5.250;2022-10-31T14:42:53;23.30;99.90
16289;DHT22;26089;43.538;5.250;2022-10-31T14:45:29;23.20;99.90
16289;DHT22;26089;43.538;5.250;2022-10-31T14:48:08;23.20;99.90
16289;DHT22;26089;43.538;5.250;2022-10-31T14:50:45;23.20;99.90
16289;DHT22;26089;43.538;5.250;2022-10-31T14:53:19;23.20;99.90
16289;DHT22;26089;43.538;5.250;2022-10-31T14:55:49;23.10;99.90
16289;DHT22;26089;43.538;5.250;2022-10-31T14:58:21;23.10;99.90
16289;DHT22;26089;43.538;5.250;2022-10-31T15:00:52;23.10;99.90
16289;DHT22;26089;43.538;5.250;2022-10-31T15:03:24;23.00;99.90
16289;DHT22;26089;43.538;5.250;2022-10-31T15:05:55;22.90;99.90
16289;DHT22;26089;43.538;5.250;2022-10-31T15:08:33;22.90;99.90
16289;DHT22;26089;43.538;5.250;2022-10-31T15:11:06;22.80;99.90
16289;DHT22;26089;43.538;5.250;2022-10-31T15:13:43;22.80;99.90
16289;DHT22;26089;43.538;5.250;2022-10-31T15:16:12;22.80;99.90
16289;DHT22;26089;43.538;5.250;2022-10-31T15:18:47;22.80;99.90
16289;DHT22;26089;43.538;5.250;2022-10-31T15:21:15;22.70;99.90
16289;DHT22;26089;43.538;5.250;2022-10-31T15:23:43;22.60;99.90
16289;DHT22;26089;43.538;5.250;2022-10-31T15:26:15;22.50;99.90
16289;DHT22;26089;43.538;5.250;2022-10-31T15:28:46;22.40;99.90
16289;DHT22;26089;43.538;5.250;2022-10-31T15:31:15;22.30;99.90
16289;DHT22;26089;43.538;5.250;2022-10-31T15:33:46;22.20;99.90
16289;DHT22;26089;43.538;5.250;2022-10-31T15:36:19;22.10;99.90
16289;DHT22;26089;43.538;5.250;2022-10-31T15:38:47;22.10;99.90
16289;DHT22;26089;43.538;5.250;2022-10-31T15:41:26;22.00;99.90
16289;DHT22;26089;43.538;5.250;2022-10-31T15:44:00;22.00;99.90
16289;DHT22;26089;43.538;5.250;2022-10-31T15:46:28;21.90;99.90
16289;DHT22;26089;43.538;5.250;2022-10-31T15:48:55;21.90;99.90
16289;DHT22;26089;43.538;5.250;2022-10-31T15:51:27;21.90;99.90
16289;DHT22;26089;43.538;5.250;2022-10-31T15:53:55;21.90;99.90
16289;DHT22;26089;43.538;5.250;2022-10-31T15:56:24;21.80;99.90
16289;DHT22;26089;43.538;5.250;2022-10-31T15:58:53;21.80;99.90
16289;DHT22;26089;43.538;5.250;2022-10-31T16:01:24;21.70;99.90
16289;DHT22;26089;43.538;5.250;2022-10-31T16:04:03;21.60;99.90